sensor_id;sensor_type;location;lat;lon;timestamp;P1;durP1;ratioP1;P2;durP2;ratioP2
11447;SDS011;43755;49.736;8.734;2022-12-07T00:00:10;13.88;;;11.48;;
11447;SDS011;43755;49.736;8.734;2022-12-07T00:02:12;16.35;;;11.93;;
11447;SDS011;43755;49.736;8.734;2022-12-07T00:04:14;14.82;;;11.40;;
11447;SDS011;43755;49.736;8.734;2022-12-07T00:06:17;16.33;;;12.45;;
11447;SDS011;43755;49.736;8.734;2022-12-07T00:08:19;15.20;;;11.90;;
11447;SDS011;43755;49.736;8.734;2022-12-07T00:10:21;13.52;;;11.13;;
11447;SDS011;43755;49.736;8.734;2022-12-07T00:12:23;13.02;;;11.30;;
11447;SDS011;43755;49.736;8.734;2022-12-07T00:14:25;13.60;;;10.65;;
11447;SDS011;43755;49.736;8.734;2022-12-07T00:16:27;14.63;;;11.82;;
11447;SDS011;43755;49.736;8.734;2022-12-07T00:18:29;15.20;;;11.85;;
11447;SDS011;43755;49.736;8.734;2022-12-07T00:20:31;15.48;;;11.70;;
11447;SDS011;43755;49.736;8.734;2022-12-07T00:22:33;12.95;;;10.95;;
11447;SDS011;43755;49.736;8.734;2022-12-07T00:24:34;14.77;;;11.25;;
11447;SDS011;43755;49.736;8.734;2022-12-07T00:26:36;14.85;;;11.82;;
11447;SDS011;43755;49.736;8.734;2022-12-07T00:28:40;14.32;;;11.65;;
11447;SDS011;43755;49.736;8.734;2022-12-07T00:30:42;13.27;;;11.05;;
11447;SDS011;43755;49.736;8.734;2022-12-07T00:32:43;14.90;;;11.60;;
11447;SDS011;43755;49.736;8.734;2022-12-07T00:34:45;13.05;;;11.23;;
11447;SDS011;43755;49.736;8.734;2022-12-07T00:36:46;14.00;;;11.35;;
11447;SDS011;43755;49.736;8.734;2022-12-07T00:38:48;14.88;;;12.20;;
11447;SDS011;43755;49.736;8.734;2022-12-07T00:40:53;16.30;;;11.85;;
11447;SDS011;43755;49.736;8.734;2022-12-07T00:42:56;14.20;;;11.25;;
11447;SDS011;43755;49.736;8.734;2022-12-07T00:44:59;13.85;;;11.18;;
11447;SDS011;43755;49.736;8.734;2022-12-07T00:47:00;13.77;;;11.55;;
11447;SDS011;43755;49.736;8.734;2022-12-07T00:49:01;14.10;;;11.02;;
11447;SDS011;43755;49.736;8.734;2022-12-07T00:51:03;14.48;;;11.52;;
11447;SDS011;43755;49.736;8.734;2022-12-07T00:53:06;13.13;;;11.32;;
11447;SDS011;43755;49.736;8.734;2022-12-07T00:55:07;14.68;;;11.05;;
11447;SDS011;43755;49.736;8.734;2022-12-07T00:57:09;14.23;;;11.68;;
11447;SDS011;43755;49.736;8.734;2022-12-07T00:59:11;14.40;;;11.30;;
11447;SDS011;43755;49.736;8.734;2022-12-07T01:01:16;14.60;;;11.40;;
11447;SDS011;43755;49.736;8.734;2022-12-07T01:03:17;16.48;;;12.13;;
11447;SDS011;43755;49.736;8.734;2022-12-07T01:05:19;13.98;;;11.32;;
11447;SDS011;43755;49.736;8.734;2022-12-07T01:07:20;17.20;;;12.05;;
11447;SDS011;43755;49.736;8.734;2022-12-07T01:09:21;17.67;;;12.10;;
11447;SDS011;43755;49.736;8.734;2022-12-07T01:11:24;15.75;;;12.38;;
11447;SDS011;43755;49.736;8.734;2022-12-07T01:13:27;15.85;;;12.15;;
11447;SDS011;43755;49.736;8.734;2022-12-07T01:15:28;14.75;;;11.23;;
11447;SDS011;43755;49.736;8.734;2022-12-07T01:17:31;16.00;;;11.88;;
11447;SDS011;43755;49.736;8.734;2022-12-07T01:19:33;17.90;;;12.23;;
11447;SDS011;43755;49.736;8.734;2022-12-07T01:21:34;16.15;;;11.80;;
11447;SDS011;43755;49.736;8.734;2022-12-07T01:23:37;15.43;;;11.18;;
11447;SDS011;43755;49.736;8.734;2022-12-07T01:25:39;15.98;;;11.73;;
11447;SDS011;43755;49.736;8.734;2022-12-07T01:27:40;16.38;;;12.48;;
11447;SDS011;43755;49.736;8.734;2022-12-07T01:29:42;17.17;;;12.15;;
11447;SDS011;43755;49.736;8.734;2022-12-07T01:31:43;15.73;;;12.95;;
11447;SDS011;43755;49.736;8.734;2022-12-07T01:33:47;17.40;;;12.75;;
11447;SDS011;43755;49.736;8.734;2022-12-07T01:35:50;16.02;;;12.60;;
11447;SDS011;43755;49.736;8.734;2022-12-07T01:37:51;15.93;;;12.05;;
11447;SDS011;43755;49.736;8.734;2022-12-07T01:39:52;17.45;;;12.23;;
11447;SDS011;43755;49.736;8.734;2022-12-07T01:41:54;19.65;;;12.77;;
11447;SDS011;43755;49.736;8.734;2022-12-07T01:44:15;15.55;;;12.20;;
11447;SDS011;43755;49.736;8.734;2022-12-07T01:46:19;16.52;;;12.15;;
11447;SDS011;43755;49.736;8.734;2022-12-07T01:48:20;15.98;;;12.18;;
11447;SDS011;43755;49.736;8.734;2022-12-07T01:50:27;19.83;;;12.68;;
11447;SDS011;43755;49.736;8.734;2022-12-07T01:52:31;17.00;;;12.93;;
11447;SDS011;43755;49.736;8.734;2022-12-07T01:54:35;16.58;;;12.80;;
11447;SDS011;43755;49.736;8.734;2022-12-07T01:56:37;16.52;;;13.05;;
11447;SDS011;43755;49.736;8.734;2022-12-07T01:58:43;17.20;;;12.73;;
11447;SDS011;43755;49.736;8.734;2022-12-07T02:00:46;17.52;;;12.77;;
11447;SDS011;43755;49.736;8.734;2022-12-07T02:02:48;18.02;;;12.57;;
11447;SDS011;43755;49.736;8.734;2022-12-07T02:04:54;15.25;;;11.88;;
11447;SDS011;43755;49.736;8.734;2022-12-07T02:06:59;17.17;;;12.98;;
11447;SDS011;43755;49.736;8.734;2022-12-07T02:09:01;14.73;;;11.43;;
11447;SDS011;43755;49.736;8.734;2022-12-07T02:11:02;15.02;;;12.65;;
11447;SDS011;43755;49.736;8.734;2022-12-07T02:13:06;15.40;;;11.77;;
11447;SDS011;43755;49.736;8.734;2022-12-07T02:15:11;17.48;;;12.30;;
11447;SDS011;43755;49.736;8.734;2022-12-07T02:17:14;17.40;;;12.48;;
11447;SDS011;43755;49.736;8.734;2022-12-07T02:19:32;19.15;;;13.10;;
11447;SDS011;43755;49.736;8.734;2022-12-07T02:22:05;17.50;;;11.60;;
11447;SDS011;43755;49.736;8.734;2022-12-07T02:27:02;17.75;;;13.00;;
11447;SDS011;43755;49.736;8.734;2022-12-07T02:29:24;16.25;;;11.65;;
11447;SDS011;43755;49.736;8.734;2022-12-07T02:31:29;15.20;;;11.45;;
11447;SDS011;43755;49.736;8.734;2022-12-07T02:33:33;16.00;;;12.07;;
11447;SDS011;43755;49.736;8.734;2022-12-07T02:35:39;13.68;;;10.85;;
11447;SDS011;43755;49.736;8.734;2022-12-07T02:37:47;15.82;;;11.93;;
11447;SDS011;43755;49.736;8.734;2022-12-07T02:39:55;15.73;;;11.90;;
11447;SDS011;43755;49.736;8.734;2022-12-07T02:42:01;15.98;;;11.32;;
11447;SDS011;43755;49.736;8.734;2022-12-07T02:44:10;15.15;;;11.75;;
11447;SDS011;43755;49.736;8.734;2022-12-07T02:46:17;14.73;;;11.93;;
11447;SDS011;43755;49.736;8.734;2022-12-07T02:48:23;14.98;;;11.65;;
11447;SDS011;43755;49.736;8.734;2022-12-07T02:50:27;15.85;;;12.40;;
11447;SDS011;43755;49.736;8.734;2022-12-07T02:52:28;15.48;;;12.27;;
11447;SDS011;43755;49.736;8.734;2022-12-07T02:54:30;15.93;;;12.35;;
11447;SDS011;43755;49.736;8.734;2022-12-07T02:56:34;16.33;;;12.95;;
11447;SDS011;43755;49.736;8.734;2022-12-07T02:58:48;17.38;;;12.63;;
11447;SDS011;43755;49.736;8.734;2022-12-07T03:00:55;16.67;;;12.13;;
11447;SDS011;43755;49.736;8.734;2022-12-07T03:03:08;17.80;;;12.10;;
11447;SDS011;43755;49.736;8.734;2022-12-07T03:05:15;15.93;;;11.98;;
11447;SDS011;43755;49.736;8.734;2022-12-07T03:07:28;16.85;;;12.07;;
11447;SDS011;43755;49.736;8.734;2022-12-07T03:09:41;17.15;;;12.45;;
11447;SDS011;43755;49.736;8.734;2022-12-07T03:11:47;16.10;;;12.07;;
11447;SDS011;43755;49.736;8.734;2022-12-07T03:13:53;18.23;;;12.85;;
11447;SDS011;43755;49.736;8.734;2022-12-07T03:16:02;16.25;;;12.40;;
11447;SDS011;43755;49.736;8.734;2022-12-07T03:18:09;17.00;;;12.35;;
11447;SDS011;43755;49.736;8.734;2022-12-07T03:20:14;16.17;;;11.75;;
11447;SDS011;43755;49.736;8.734;2022-12-07T03:22:20;16.55;;;12.20;;
11447;SDS011;43755;49.736;8.734;2022-12-07T03:24:26;15.48;;;11.77;;
11447;SDS011;43755;49.736;8.734;2022-12-07T03:26:30;15.95;;;11.85;;
11447;SDS011;43755;49.736;8.734;2022-12-07T03:28:36;18.33;;;12.38;;
11447;SDS011;43755;49.736;8.734;2022-12-07T03:30:42;19.50;;;12.00;;
11447;SDS011;43755;49.736;8.734;2022-12-07T03:32:49;16.50;;;12.10;;
11447;SDS011;43755;49.736;8.734;2022-12-07T03:34:57;16.10;;;11.80;;
11447;SDS011;43755;49.736;8.734;2022-12-07T03:37:04;14.50;;;10.77;;
11447;SDS011;43755;49.736;8.734;2022-12-07T03:39:13;14.13;;;10.80;;
11447;SDS011;43755;49.736;8.734;2022-12-07T03:41:22;16.33;;;11.50;;
11447;SDS011;43755;49.736;8.734;2022-12-07T03:43:25;15.05;;;11.00;;
11447;SDS011;43755;49.736;8.734;2022-12-07T03:45:31;14.15;;;10.60;;
11447;SDS011;43755;49.736;8.734;2022-12-07T03:47:42;13.52;;;10.23;;
11447;SDS011;43755;49.736;8.734;2022-12-07T03:49:48;14.18;;;9.88;;
11447;SDS011;43755;49.736;8.734;2022-12-07T03:51:56;14.77;;;9.90;;
11447;SDS011;43755;49.736;8.734;2022-12-07T03:54:05;14.13;;;10.63;;
11447;SDS011;43755;49.736;8.734;2022-12-07T03:56:12;16.42;;;10.70;;
11447;SDS011;43755;49.736;8.734;2022-12-07T03:58:15;15.80;;;11.23;;
11447;SDS011;43755;49.736;8.734;2022-12-07T04:00:19;14.05;;;10.95;;
11447;SDS011;43755;49.736;8.734;2022-12-07T04:02:21;13.98;;;11.48;;
11447;SDS011;43755;49.736;8.734;2022-12-07T04:04:23;15.60;;;11.90;;
11447;SDS011;43755;49.736;8.734;2022-12-07T04:06:26;16.08;;;11.57;;
11447;SDS011;43755;49.736;8.734;2022-12-07T04:08:28;13.35;;;11.10;;
11447;SDS011;43755;49.736;8.734;2022-12-07T04:10:30;13.90;;;11.48;;
11447;SDS011;43755;49.736;8.734;2022-12-07T04:12:31;16.00;;;11.50;;
11447;SDS011;43755;49.736;8.734;2022-12-07T04:14:33;16.38;;;11.85;;
11447;SDS011;43755;49.736;8.734;2022-12-07T04:16:34;16.63;;;12.20;;
11447;SDS011;43755;49.736;8.734;2022-12-07T04:18:35;16.05;;;11.70;;
11447;SDS011;43755;49.736;8.734;2022-12-07T04:20:37;15.88;;;11.15;;
11447;SDS011;43755;49.736;8.734;2022-12-07T04:22:38;14.85;;;11.45;;
11447;SDS011;43755;49.736;8.734;2022-12-07T04:24:41;14.32;;;11.18;;
11447;SDS011;43755;49.736;8.734;2022-12-07T04:26:43;15.57;;;11.48;;
11447;SDS011;43755;49.736;8.734;2022-12-07T04:28:45;15.07;;;10.80;;
11447;SDS011;43755;49.736;8.734;2022-12-07T04:30:46;23.17;;;11.57;;
11447;SDS011;43755;49.736;8.734;2022-12-07T04:32:47;13.95;;;11.18;;
11447;SDS011;43755;49.736;8.734;2022-12-07T04:34:49;14.23;;;10.52;;
11447;SDS011;43755;49.736;8.734;2022-12-07T04:36:51;15.43;;;11.25;;
11447;SDS011;43755;49.736;8.734;2022-12-07T04:38:52;15.93;;;11.60;;
11447;SDS011;43755;49.736;8.734;2022-12-07T04:40:56;15.77;;;12.00;;
11447;SDS011;43755;49.736;8.734;2022-12-07T04:42:57;14.82;;;11.65;;
11447;SDS011;43755;49.736;8.734;2022-12-07T04:44:59;14.90;;;11.95;;
11447;SDS011;43755;49.736;8.734;2022-12-07T04:47:00;15.68;;;11.45;;
11447;SDS011;43755;49.736;8.734;2022-12-07T04:49:01;13.95;;;11.15;;
11447;SDS011;43755;49.736;8.734;2022-12-07T04:51:03;15.10;;;12.05;;
11447;SDS011;43755;49.736;8.734;2022-12-07T04:53:05;18.35;;;12.10;;
11447;SDS011;43755;49.736;8.734;2022-12-07T04:55:07;15.55;;;11.95;;
11447;SDS011;43755;49.736;8.734;2022-12-07T04:57:10;16.60;;;12.10;;
11447;SDS011;43755;49.736;8.734;2022-12-07T04:59:11;16.05;;;11.70;;
11447;SDS011;43755;49.736;8.734;2022-12-07T05:01:14;15.40;;;11.77;;
11447;SDS011;43755;49.736;8.734;2022-12-07T05:03:16;14.70;;;11.95;;
11447;SDS011;43755;49.736;8.734;2022-12-07T05:05:18;16.67;;;11.88;;
11447;SDS011;43755;49.736;8.734;2022-12-07T05:07:19;16.13;;;11.82;;
11447;SDS011;43755;49.736;8.734;2022-12-07T05:09:20;14.88;;;11.60;;
11447;SDS011;43755;49.736;8.734;2022-12-07T05:11:22;16.02;;;12.00;;
11447;SDS011;43755;49.736;8.734;2022-12-07T05:13:40;17.38;;;11.93;;
11447;SDS011;43755;49.736;8.734;2022-12-07T05:15:41;18.48;;;12.55;;
11447;SDS011;43755;49.736;8.734;2022-12-07T05:17:43;15.20;;;11.98;;
11447;SDS011;43755;49.736;8.734;2022-12-07T05:19:45;18.05;;;12.77;;
11447;SDS011;43755;49.736;8.734;2022-12-07T05:21:46;14.73;;;11.70;;
11447;SDS011;43755;49.736;8.734;2022-12-07T05:23:48;18.50;;;12.48;;
11447;SDS011;43755;49.736;8.734;2022-12-07T05:25:50;16.65;;;12.05;;
11447;SDS011;43755;49.736;8.734;2022-12-07T05:27:51;16.77;;;12.65;;
11447;SDS011;43755;49.736;8.734;2022-12-07T05:29:54;18.23;;;12.70;;
11447;SDS011;43755;49.736;8.734;2022-12-07T05:31:55;16.20;;;12.07;;
11447;SDS011;43755;49.736;8.734;2022-12-07T05:33:57;16.77;;;12.10;;
11447;SDS011;43755;49.736;8.734;2022-12-07T05:35:58;14.38;;;11.23;;
11447;SDS011;43755;49.736;8.734;2022-12-07T05:38:05;15.82;;;11.02;;
11447;SDS011;43755;49.736;8.734;2022-12-07T05:40:07;18.02;;;12.13;;
11447;SDS011;43755;49.736;8.734;2022-12-07T05:42:09;16.52;;;11.80;;
11447;SDS011;43755;49.736;8.734;2022-12-07T05:44:13;15.77;;;12.10;;
11447;SDS011;43755;49.736;8.734;2022-12-07T05:46:16;17.30;;;12.20;;
11447;SDS011;43755;49.736;8.734;2022-12-07T05:48:17;18.30;;;14.73;;
11447;SDS011;43755;49.736;8.734;2022-12-07T05:50:19;18.58;;;14.00;;
11447;SDS011;43755;49.736;8.734;2022-12-07T05:52:20;15.15;;;12.52;;
11447;SDS011;43755;49.736;8.734;2022-12-07T05:54:22;14.50;;;11.68;;
11447;SDS011;43755;49.736;8.734;2022-12-07T05:56:23;17.35;;;11.95;;
11447;SDS011;43755;49.736;8.734;2022-12-07T05:58:26;15.65;;;11.50;;
11447;SDS011;43755;49.736;8.734;2022-12-07T06:00:45;14.80;;;11.25;;
11447;SDS011;43755;49.736;8.734;2022-12-07T06:02:47;15.93;;;11.60;;
11447;SDS011;43755;49.736;8.734;2022-12-07T06:04:49;15.95;;;11.85;;
11447;SDS011;43755;49.736;8.734;2022-12-07T06:06:50;15.32;;;11.85;;
11447;SDS011;43755;49.736;8.734;2022-12-07T06:08:52;13.38;;;11.00;;
11447;SDS011;43755;49.736;8.734;2022-12-07T06:10:53;18.05;;;12.43;;
11447;SDS011;43755;49.736;8.734;2022-12-07T06:13:09;17.17;;;11.38;;
11447;SDS011;43755;49.736;8.734;2022-12-07T06:15:10;17.08;;;11.50;;
11447;SDS011;43755;49.736;8.734;2022-12-07T06:17:13;15.07;;;10.98;;
11447;SDS011;43755;49.736;8.734;2022-12-07T06:19:17;16.55;;;12.90;;
11447;SDS011;43755;49.736;8.734;2022-12-07T06:21:18;17.00;;;11.90;;
11447;SDS011;43755;49.736;8.734;2022-12-07T06:23:20;15.32;;;11.80;;
11447;SDS011;43755;49.736;8.734;2022-12-07T06:25:21;19.98;;;11.63;;
11447;SDS011;43755;49.736;8.734;2022-12-07T06:27:22;16.15;;;11.45;;
11447;SDS011;43755;49.736;8.734;2022-12-07T06:29:24;14.77;;;11.27;;
11447;SDS011;43755;49.736;8.734;2022-12-07T06:31:25;15.40;;;11.30;;
11447;SDS011;43755;49.736;8.734;2022-12-07T06:33:27;16.83;;;13.60;;
11447;SDS011;43755;49.736;8.734;2022-12-07T06:35:30;15.68;;;11.23;;
11447;SDS011;43755;49.736;8.734;2022-12-07T06:37:33;16.52;;;13.55;;
11447;SDS011;43755;49.736;8.734;2022-12-07T06:39:34;13.02;;;11.63;;
11447;SDS011;43755;49.736;8.734;2022-12-07T06:41:36;13.88;;;10.35;;
11447;SDS011;43755;49.736;8.734;2022-12-07T06:43:38;14.80;;;11.13;;
11447;SDS011;43755;49.736;8.734;2022-12-07T06:45:40;14.70;;;11.20;;
11447;SDS011;43755;49.736;8.734;2022-12-07T06:47:41;12.90;;;10.73;;
11447;SDS011;43755;49.736;8.734;2022-12-07T06:49:43;17.85;;;11.13;;
11447;SDS011;43755;49.736;8.734;2022-12-07T06:51:46;13.85;;;11.02;;
11447;SDS011;43755;49.736;8.734;2022-12-07T06:53:47;15.23;;;11.85;;
11447;SDS011;43755;49.736;8.734;2022-12-07T06:55:48;14.18;;;11.15;;
11447;SDS011;43755;49.736;8.734;2022-12-07T06:57:50;20.60;;;14.13;;
11447;SDS011;43755;49.736;8.734;2022-12-07T06:59:51;21.77;;;16.30;;
11447;SDS011;43755;49.736;8.734;2022-12-07T07:01:53;17.55;;;14.13;;
11447;SDS011;43755;49.736;8.734;2022-12-07T07:03:54;15.52;;;11.77;;
11447;SDS011;43755;49.736;8.734;2022-12-07T07:05:55;14.05;;;11.35;;
11447;SDS011;43755;49.736;8.734;2022-12-07T07:07:58;14.93;;;11.00;;
11447;SDS011;43755;49.736;8.734;2022-12-07T07:10:00;16.33;;;11.63;;
11447;SDS011;43755;49.736;8.734;2022-12-07T07:12:01;15.98;;;11.40;;
11447;SDS011;43755;49.736;8.734;2022-12-07T07:14:02;15.13;;;11.68;;
11447;SDS011;43755;49.736;8.734;2022-12-07T07:16:04;13.65;;;11.02;;
11447;SDS011;43755;49.736;8.734;2022-12-07T07:18:06;16.02;;;11.43;;
11447;SDS011;43755;49.736;8.734;2022-12-07T07:20:08;16.02;;;11.60;;
11447;SDS011;43755;49.736;8.734;2022-12-07T07:22:10;14.88;;;11.20;;
11447;SDS011;43755;49.736;8.734;2022-12-07T07:24:13;14.30;;;11.07;;
11447;SDS011;43755;49.736;8.734;2022-12-07T07:26:14;15.00;;;11.15;;
11447;SDS011;43755;49.736;8.734;2022-12-07T07:28:16;15.95;;;10.90;;
11447;SDS011;43755;49.736;8.734;2022-12-07T07:30:17;14.93;;;10.82;;
11447;SDS011;43755;49.736;8.734;2022-12-07T07:32:19;14.27;;;11.07;;
11447;SDS011;43755;49.736;8.734;2022-12-07T07:34:21;14.82;;;11.10;;
11447;SDS011;43755;49.736;8.734;2022-12-07T07:36:23;14.38;;;10.88;;
11447;SDS011;43755;49.736;8.734;2022-12-07T07:38:24;14.15;;;11.15;;
11447;SDS011;43755;49.736;8.734;2022-12-07T07:40:27;13.60;;;10.45;;
11447;SDS011;43755;49.736;8.734;2022-12-07T07:42:29;15.35;;;10.95;;
11447;SDS011;43755;49.736;8.734;2022-12-07T07:44:31;14.20;;;11.52;;
11447;SDS011;43755;49.736;8.734;2022-12-07T07:46:32;15.15;;;11.57;;
11447;SDS011;43755;49.736;8.734;2022-12-07T07:48:34;13.88;;;11.20;;
11447;SDS011;43755;49.736;8.734;2022-12-07T07:50:35;14.35;;;10.55;;
11447;SDS011;43755;49.736;8.734;2022-12-07T07:52:36;13.63;;;10.75;;
11447;SDS011;43755;49.736;8.734;2022-12-07T07:54:38;14.20;;;11.00;;
11447;SDS011;43755;49.736;8.734;2022-12-07T07:56:41;15.18;;;11.15;;
11447;SDS011;43755;49.736;8.734;2022-12-07T07:58:42;14.90;;;11.52;;
11447;SDS011;43755;49.736;8.734;2022-12-07T08:00:43;15.55;;;11.95;;
11447;SDS011;43755;49.736;8.734;2022-12-07T08:02:45;14.55;;;11.20;;
11447;SDS011;43755;49.736;8.734;2022-12-07T08:04:47;15.68;;;10.85;;
11447;SDS011;43755;49.736;8.734;2022-12-07T08:06:48;13.50;;;11.18;;
11447;SDS011;43755;49.736;8.734;2022-12-07T08:08:50;14.40;;;11.40;;
11447;SDS011;43755;49.736;8.734;2022-12-07T08:10:51;14.77;;;11.07;;
11447;SDS011;43755;49.736;8.734;2022-12-07T08:12:54;15.20;;;11.20;;
11447;SDS011;43755;49.736;8.734;2022-12-07T08:15:14;13.65;;;11.15;;
11447;SDS011;43755;49.736;8.734;2022-12-07T08:17:15;15.25;;;11.55;;
11447;SDS011;43755;49.736;8.734;2022-12-07T08:19:17;14.23;;;11.30;;
11447;SDS011;43755;49.736;8.734;2022-12-07T08:21:18;13.95;;;11.45;;
11447;SDS011;43755;49.736;8.734;2022-12-07T08:23:20;12.50;;;10.95;;
11447;SDS011;43755;49.736;8.734;2022-12-07T08:25:21;13.68;;;11.30;;
11447;SDS011;43755;49.736;8.734;2022-12-07T08:27:23;16.55;;;11.55;;
11447;SDS011;43755;49.736;8.734;2022-12-07T08:29:28;15.40;;;11.73;;
11447;SDS011;43755;49.736;8.734;2022-12-07T08:31:29;15.48;;;11.05;;
11447;SDS011;43755;49.736;8.734;2022-12-07T08:33:31;14.43;;;11.35;;
11447;SDS011;43755;49.736;8.734;2022-12-07T08:35:33;13.80;;;11.15;;
11447;SDS011;43755;49.736;8.734;2022-12-07T08:37:35;16.10;;;11.65;;
11447;SDS011;43755;49.736;8.734;2022-12-07T08:39:37;16.38;;;11.55;;
11447;SDS011;43755;49.736;8.734;2022-12-07T08:41:38;17.13;;;11.68;;
11447;SDS011;43755;49.736;8.734;2022-12-07T08:43:40;14.45;;;11.93;;
11447;SDS011;43755;49.736;8.734;2022-12-07T08:45:42;15.85;;;12.05;;
11447;SDS011;43755;49.736;8.734;2022-12-07T08:47:44;15.98;;;11.85;;
11447;SDS011;43755;49.736;8.734;2022-12-07T08:49:49;17.08;;;12.95;;
11447;SDS011;43755;49.736;8.734;2022-12-07T08:51:53;14.88;;;12.05;;
11447;SDS011;43755;49.736;8.734;2022-12-07T08:53:56;15.05;;;11.88;;
11447;SDS011;43755;49.736;8.734;2022-12-07T08:56:01;15.40;;;11.85;;
11447;SDS011;43755;49.736;8.734;2022-12-07T08:58:02;13.82;;;11.95;;
11447;SDS011;43755;49.736;8.734;2022-12-07T09:00:05;14.77;;;12.60;;
11447;SDS011;43755;49.736;8.734;2022-12-07T09:02:08;13.95;;;11.63;;
11447;SDS011;43755;49.736;8.734;2022-12-07T09:04:10;15.93;;;12.18;;
11447;SDS011;43755;49.736;8.734;2022-12-07T09:06:11;16.25;;;12.32;;
11447;SDS011;43755;49.736;8.734;2022-12-07T09:08:13;12.63;;;11.32;;
11447;SDS011;43755;49.736;8.734;2022-12-07T09:10:14;15.60;;;12.80;;
11447;SDS011;43755;49.736;8.734;2022-12-07T09:12:16;14.90;;;12.48;;
11447;SDS011;43755;49.736;8.734;2022-12-07T09:14:17;14.20;;;11.77;;
11447;SDS011;43755;49.736;8.734;2022-12-07T09:16:19;14.75;;;12.23;;
11447;SDS011;43755;49.736;8.734;2022-12-07T09:18:21;17.75;;;12.82;;
11447;SDS011;43755;49.736;8.734;2022-12-07T09:20:24;16.50;;;12.73;;
11447;SDS011;43755;49.736;8.734;2022-12-07T09:22:27;14.80;;;12.43;;
11447;SDS011;43755;49.736;8.734;2022-12-07T09:24:29;17.42;;;13.13;;
11447;SDS011;43755;49.736;8.734;2022-12-07T09:26:31;17.10;;;13.15;;
11447;SDS011;43755;49.736;8.734;2022-12-07T09:28:32;14.30;;;12.18;;
11447;SDS011;43755;49.736;8.734;2022-12-07T09:30:34;13.52;;;11.65;;
11447;SDS011;43755;49.736;8.734;2022-12-07T09:32:35;17.88;;;13.00;;
11447;SDS011;43755;49.736;8.734;2022-12-07T09:34:39;16.25;;;13.65;;
11447;SDS011;43755;49.736;8.734;2022-12-07T09:36:40;17.00;;;13.45;;
11447;SDS011;43755;49.736;8.734;2022-12-07T09:38:42;16.83;;;13.18;;
11447;SDS011;43755;49.736;8.734;2022-12-07T09:40:44;19.27;;;13.70;;
11447;SDS011;43755;49.736;8.734;2022-12-07T09:42:47;15.55;;;13.60;;
11447;SDS011;43755;49.736;8.734;2022-12-07T09:44:51;16.85;;;13.38;;
11447;SDS011;43755;49.736;8.734;2022-12-07T09:46:52;19.00;;;13.05;;
11447;SDS011;43755;49.736;8.734;2022-12-07T09:48:54;19.67;;;14.68;;
11447;SDS011;43755;49.736;8.734;2022-12-07T09:50:57;17.20;;;13.70;;
11447;SDS011;43755;49.736;8.734;2022-12-07T09:53:03;24.15;;;15.23;;
11447;SDS011;43755;49.736;8.734;2022-12-07T09:55:11;17.77;;;13.52;;
11447;SDS011;43755;49.736;8.734;2022-12-07T09:57:14;15.65;;;13.68;;
11447;SDS011;43755;49.736;8.734;2022-12-07T09:59:17;18.45;;;13.68;;
11447;SDS011;43755;49.736;8.734;2022-12-07T10:01:20;19.15;;;14.55;;
11447;SDS011;43755;49.736;8.734;2022-12-07T10:03:22;16.70;;;14.20;;
11447;SDS011;43755;49.736;8.734;2022-12-07T10:05:24;18.60;;;14.77;;
11447;SDS011;43755;49.736;8.734;2022-12-07T10:07:32;15.63;;;13.50;;
11447;SDS011;43755;49.736;8.734;2022-12-07T10:09:33;17.13;;;14.35;;
11447;SDS011;43755;49.736;8.734;2022-12-07T10:11:43;22.20;;;15.45;;
11447;SDS011;43755;49.736;8.734;2022-12-07T10:14:09;20.73;;;14.45;;
11447;SDS011;43755;49.736;8.734;2022-12-07T10:16:27;20.73;;;15.35;;
11447;SDS011;43755;49.736;8.734;2022-12-07T10:18:37;16.90;;;14.52;;
11447;SDS011;43755;49.736;8.734;2022-12-07T10:20:41;17.02;;;14.10;;
11447;SDS011;43755;49.736;8.734;2022-12-07T10:22:59;17.20;;;14.18;;
11447;SDS011;43755;49.736;8.734;2022-12-07T10:25:08;18.27;;;14.48;;
11447;SDS011;43755;49.736;8.734;2022-12-07T10:27:19;17.13;;;13.82;;
11447;SDS011;43755;49.736;8.734;2022-12-07T10:29:22;16.40;;;13.05;;
11447;SDS011;43755;49.736;8.734;2022-12-07T10:31:26;17.38;;;13.98;;
11447;SDS011;43755;49.736;8.734;2022-12-07T10:33:32;17.17;;;13.18;;
11447;SDS011;43755;49.736;8.734;2022-12-07T10:35:35;15.93;;;13.65;;
11447;SDS011;43755;49.736;8.734;2022-12-07T10:37:44;16.85;;;13.20;;
11447;SDS011;43755;49.736;8.734;2022-12-07T10:39:48;18.20;;;14.02;;
11447;SDS011;43755;49.736;8.734;2022-12-07T10:41:54;14.70;;;13.05;;
11447;SDS011;43755;49.736;8.734;2022-12-07T10:43:57;16.02;;;12.60;;
11447;SDS011;43755;49.736;8.734;2022-12-07T10:46:05;17.90;;;13.95;;
11447;SDS011;43755;49.736;8.734;2022-12-07T10:48:19;14.25;;;11.93;;
11447;SDS011;43755;49.736;8.734;2022-12-07T10:50:38;13.35;;;11.93;;
11447;SDS011;43755;49.736;8.734;2022-12-07T10:52:56;17.33;;;12.30;;
11447;SDS011;43755;49.736;8.734;2022-12-07T10:55:11;15.43;;;13.65;;
11447;SDS011;43755;49.736;8.734;2022-12-07T10:57:22;16.33;;;13.07;;
11447;SDS011;43755;49.736;8.734;2022-12-07T10:59:39;15.65;;;13.65;;
11447;SDS011;43755;49.736;8.734;2022-12-07T11:01:48;18.52;;;13.85;;
11447;SDS011;43755;49.736;8.734;2022-12-07T11:04:14;15.45;;;13.38;;
11447;SDS011;43755;49.736;8.734;2022-12-07T11:06:25;15.73;;;13.70;;
11447;SDS011;43755;49.736;8.734;2022-12-07T11:08:37;16.65;;;13.85;;
11447;SDS011;43755;49.736;8.734;2022-12-07T11:10:50;17.52;;;14.00;;
11447;SDS011;43755;49.736;8.734;2022-12-07T11:12:59;17.10;;;14.30;;
11447;SDS011;43755;49.736;8.734;2022-12-07T11:15:21;18.88;;;14.70;;
11447;SDS011;43755;49.736;8.734;2022-12-07T11:17:30;16.83;;;14.02;;
11447;SDS011;43755;49.736;8.734;2022-12-07T11:19:43;18.17;;;13.65;;
11447;SDS011;43755;49.736;8.734;2022-12-07T11:21:56;15.70;;;13.20;;
11447;SDS011;43755;49.736;8.734;2022-12-07T11:24:01;16.80;;;14.02;;
11447;SDS011;43755;49.736;8.734;2022-12-07T11:26:06;16.25;;;14.05;;
11447;SDS011;43755;49.736;8.734;2022-12-07T11:28:18;15.30;;;13.40;;
11447;SDS011;43755;49.736;8.734;2022-12-07T11:30:31;17.58;;;13.63;;
11447;SDS011;43755;49.736;8.734;2022-12-07T11:32:51;14.43;;;12.93;;
11447;SDS011;43755;49.736;8.734;2022-12-07T11:35:04;16.05;;;12.98;;
11447;SDS011;43755;49.736;8.734;2022-12-07T11:37:11;15.65;;;12.93;;
11447;SDS011;43755;49.736;8.734;2022-12-07T11:39:18;15.50;;;12.27;;
11447;SDS011;43755;49.736;8.734;2022-12-07T11:41:28;15.95;;;12.40;;
11447;SDS011;43755;49.736;8.734;2022-12-07T11:43:34;14.68;;;12.80;;
11447;SDS011;43755;49.736;8.734;2022-12-07T11:45:37;16.73;;;13.20;;
11447;SDS011;43755;49.736;8.734;2022-12-07T11:47:45;16.13;;;12.35;;
11447;SDS011;43755;49.736;8.734;2022-12-07T11:49:51;16.48;;;12.18;;
11447;SDS011;43755;49.736;8.734;2022-12-07T11:51:58;15.15;;;12.57;;
11447;SDS011;43755;49.736;8.734;2022-12-07T11:54:02;15.13;;;12.43;;
11447;SDS011;43755;49.736;8.734;2022-12-07T11:56:13;14.60;;;11.52;;
11447;SDS011;43755;49.736;8.734;2022-12-07T11:58:30;13.88;;;11.55;;
11447;SDS011;43755;49.736;8.734;2022-12-07T12:00:41;13.30;;;11.32;;
11447;SDS011;43755;49.736;8.734;2022-12-07T12:02:43;15.32;;;11.38;;
11447;SDS011;43755;49.736;8.734;2022-12-07T12:04:51;14.43;;;11.25;;
11447;SDS011;43755;49.736;8.734;2022-12-07T12:06:57;14.93;;;10.98;;
11447;SDS011;43755;49.736;8.734;2022-12-07T12:09:00;15.10;;;12.00;;